createdAt,value
2022-09-21T00:00:25.942Z,14.18
2022-09-21T00:02:55.280Z,14.16
2022-09-21T00:05:21.815Z,14.05
2022-09-21T00:07:48.150Z,14.14
2022-09-21T00:10:14.863Z,14.34
2022-09-21T00:12:41.245Z,14.28
2022-09-21T00:15:09.484Z,14.36
2022-09-21T00:17:36.997Z,14.31
2022-09-21T00:20:05.928Z,14.36
2022-09-21T00:22:33.385Z,14.34
2022-09-21T00:25:01.346Z,14.06
2022-09-21T00:27:29.990Z,14.00
2022-09-21T00:29:57.598Z,13.86
2022-09-21T00:32:27.655Z,13.80
2022-09-21T00:34:54.006Z,13.45
2022-09-21T00:37:20.362Z,13.34
2022-09-21T00:39:46.816Z,13.53
2022-09-21T00:42:25.921Z,13.59
2022-09-21T00:44:52.682Z,13.72
2022-09-21T00:47:24.935Z,13.80
2022-09-21T00:49:55.583Z,13.90
2022-09-21T00:52:30.232Z,13.86
2022-09-21T00:55:00.531Z,13.75
2022-09-21T00:57:30.971Z,14.07
2022-09-21T01:00:01.273Z,14.07
2022-09-21T01:02:28.397Z,13.94
2022-09-21T01:04:55.594Z,13.68
2022-09-21T01:07:27.496Z,13.70
2022-09-21T01:10:02.343Z,13.23
2022-09-21T01:12:53.668Z,13.90
2022-09-21T01:15:40.508Z,13.70
2022-09-21T01:18:18.096Z,13.58
2022-09-21T01:21:15.698Z,13.47
2022-09-21T01:24:27.225Z,13.64
2022-09-21T01:27:11.648Z,13.69
2022-09-21T01:29:55.985Z,13.73
2022-09-21T01:32:28.034Z,13.69
2022-09-21T01:35:02.842Z,13.49
2022-09-21T01:37:43.730Z,13.09
2022-09-21T01:40:16.699Z,13.02
2022-09-21T01:42:47.054Z,12.98
2022-09-21T01:45:17.619Z,13.10
2022-09-21T01:47:48.264Z,13.23
2022-09-21T01:50:17.403Z,13.18
2022-09-21T01:52:52.192Z,13.33
2022-09-21T01:55:29.642Z,13.28
2022-09-21T01:58:11.858Z,13.25
2022-09-21T02:00:40.301Z,13.40
2022-09-21T02:03:15.217Z,13.21
2022-09-21T02:05:42.503Z,13.21
2022-09-21T02:08:10.420Z,13.06
2022-09-21T02:10:42.757Z,13.27
2022-09-21T02:13:09.539Z,13.33
2022-09-21T02:16:16.597Z,13.30
2022-09-21T02:19:07.545Z,13.11
2022-09-21T02:21:41.621Z,13.12
2022-09-21T02:24:21.871Z,13.20
2022-09-21T02:26:56.600Z,13.14
2022-09-21T02:29:33.365Z,13.10
2022-09-21T02:32:10.910Z,13.18
2022-09-21T02:34:46.191Z,13.03
2022-09-21T02:37:25.243Z,13.07
2022-09-21T02:39:58.070Z,13.09
2022-09-21T02:42:29.611Z,13.15
2022-09-21T02:45:05.683Z,13.07
2022-09-21T02:47:44.700Z,12.93
2022-09-21T02:50:17.377Z,12.98
2022-09-21T02:52:44.471Z,12.59
2022-09-21T02:55:13.151Z,12.67
2022-09-21T02:57:40.758Z,12.88
2022-09-21T03:00:08.235Z,12.75
2022-09-21T03:02:40.083Z,12.84
2022-09-21T03:05:08.014Z,12.94
2022-09-21T03:07:34.510Z,12.87
2022-09-21T03:10:01.244Z,12.84
2022-09-21T03:12:27.878Z,12.72
2022-09-21T03:14:54.194Z,12.81
2022-09-21T03:17:20.931Z,12.77
2022-09-21T03:19:47.273Z,12.65
2022-09-21T03:22:13.590Z,12.68
2022-09-21T03:24:45.882Z,12.78
2022-09-21T03:27:18.205Z,12.75
2022-09-21T03:29:45.190Z,12.35
2022-09-21T03:32:11.706Z,12.73
2022-09-21T03:34:38.108Z,12.74
2022-09-21T03:37:06.760Z,12.56
2022-09-21T03:39:33.094Z,12.63
2022-09-21T03:41:59.425Z,12.43
2022-09-21T03:44:26.675Z,12.51
2022-09-21T03:46:53.810Z,12.40
2022-09-21T03:49:20.295Z,12.62
2022-09-21T03:51:46.802Z,12.35
2022-09-21T03:54:13.161Z,12.17
2022-09-21T03:56:39.498Z,12.20
2022-09-21T03:59:09.482Z,12.03
2022-09-21T04:01:38.480Z,12.11
2022-09-21T04:04:04.973Z,12.22
2022-09-21T04:06:31.293Z,12.05
2022-09-21T04:08:57.629Z,12.42
2022-09-21T04:11:24.549Z,12.31
2022-09-21T04:13:53.154Z,12.25
2022-09-21T04:16:19.519Z,11.89
2022-09-21T04:18:47.758Z,11.81
2022-09-21T04:21:14.075Z,11.68
2022-09-21T04:23:41.572Z,11.80
2022-09-21T04:26:27.667Z,12.00
2022-09-21T04:28:55.192Z,12.13
2022-09-21T04:31:23.208Z,11.99
2022-09-21T04:33:51.019Z,11.86
2022-09-21T04:36:18.785Z,11.84
2022-09-21T04:38:45.708Z,11.76
2022-09-21T04:41:12.833Z,12.04
2022-09-21T04:43:42.334Z,12.24
2022-09-21T04:46:11.465Z,12.34
2022-09-21T04:48:39.102Z,12.36
2022-09-21T04:51:07.700Z,12.25
2022-09-21T04:53:35.691Z,12.44
2022-09-21T04:56:02.671Z,12.51
2022-09-21T04:58:29.046Z,12.44
2022-09-21T05:00:56.504Z,12.44
2022-09-21T05:03:24.534Z,12.30
2022-09-21T05:05:53.085Z,12.32
2022-09-21T05:08:40.891Z,12.10
2022-09-21T05:11:09.786Z,12.36
2022-09-21T05:13:36.432Z,12.41
2022-09-21T05:16:02.924Z,12.23
2022-09-21T05:18:29.394Z,12.22
2022-09-21T05:21:00.643Z,12.44
2022-09-21T05:23:29.471Z,12.21
2022-09-21T05:25:56.941Z,12.28
2022-09-21T05:28:24.336Z,12.48
2022-09-21T05:31:17.824Z,12.54
2022-09-21T05:33:51.591Z,12.27
2022-09-21T05:36:30.006Z,12.25
2022-09-21T05:38:56.666Z,12.08
2022-09-21T05:41:23.617Z,11.90
2022-09-21T05:43:50.430Z,12.27
2022-09-21T05:46:26.583Z,12.12
2022-09-21T05:49:17.418Z,12.43
2022-09-21T05:52:13.585Z,12.47
2022-09-21T05:55:27.590Z,12.50
2022-09-21T05:58:15.465Z,12.60
2022-09-21T06:01:02.028Z,12.70
2022-09-21T06:03:33.643Z,12.59
2022-09-21T06:05:59.977Z,12.64
2022-09-21T06:08:26.725Z,12.39
2022-09-21T06:10:54.710Z,12.69
2022-09-21T06:13:21.415Z,12.51
2022-09-21T06:15:47.762Z,12.86
2022-09-21T06:18:17.764Z,12.64
2022-09-21T06:20:44.415Z,12.75
2022-09-21T06:23:13.080Z,12.85
2022-09-21T06:25:39.844Z,12.78
2022-09-21T06:28:12.586Z,12.71
2022-09-21T06:30:42.025Z,12.93
2022-09-21T06:33:08.870Z,13.01
2022-09-21T06:35:36.833Z,13.08
2022-09-21T06:38:06.273Z,13.07
2022-09-21T06:40:35.031Z,13.16
2022-09-21T06:43:05.875Z,13.12
2022-09-21T06:45:32.497Z,13.17
2022-09-21T06:47:59.091Z,13.09
2022-09-21T06:50:25.679Z,12.83
2022-09-21T06:52:52.018Z,13.09
2022-09-21T06:55:18.357Z,13.16
2022-09-21T06:57:44.866Z,13.38
2022-09-21T07:00:12.899Z,13.42
2022-09-21T07:02:43.441Z,13.37
2022-09-21T07:05:09.798Z,13.52
2022-09-21T07:07:36.403Z,13.54
2022-09-21T07:10:05.859Z,13.57
2022-09-21T07:12:34.574Z,13.33
2022-09-21T07:15:02.248Z,13.62
2022-09-21T07:17:33.152Z,13.56
2022-09-21T07:20:00.196Z,13.50
2022-09-21T07:22:28.822Z,13.55
2022-09-21T07:24:55.251Z,13.80
2022-09-21T07:27:21.819Z,14.01
2022-09-21T07:29:48.114Z,13.41
2022-09-21T07:32:14.548Z,14.22
2022-09-21T07:34:40.889Z,14.21
2022-09-21T07:37:07.180Z,14.31
2022-09-21T07:39:33.504Z,14.42
2022-09-21T07:41:59.819Z,14.37
2022-09-21T07:44:26.552Z,14.42
2022-09-21T07:46:52.978Z,14.57
2022-09-21T07:49:19.409Z,14.64
2022-09-21T07:51:45.949Z,14.84
2022-09-21T07:54:12.694Z,14.76
2022-09-21T07:56:39.537Z,14.80
2022-09-21T07:59:05.914Z,14.92
2022-09-21T08:01:34.781Z,14.81
2022-09-21T08:04:01.809Z,15.02
2022-09-21T08:06:30.877Z,15.24
2022-09-21T08:08:58.288Z,15.24
2022-09-21T08:11:26.225Z,15.31
2022-09-21T08:13:54.068Z,15.51
2022-09-21T08:16:20.905Z,15.61
2022-09-21T08:18:47.355Z,15.47
2022-09-21T08:21:13.854Z,15.42
2022-09-21T08:23:40.453Z,15.66
2022-09-21T08:26:07.617Z,15.83
2022-09-21T08:28:36.139Z,15.93
2022-09-21T08:31:08.552Z,16.01
2022-09-21T08:33:35.501Z,16.12
2022-09-21T08:36:03.164Z,16.12
2022-09-21T08:38:34.717Z,16.23
2022-09-21T08:41:03.003Z,16.13
2022-09-21T08:43:36.669Z,16.32
2022-09-21T08:46:28.201Z,16.36
2022-09-21T08:49:07.023Z,16.66
2022-09-21T08:51:36.888Z,16.62
2022-09-21T08:54:20.288Z,16.55
2022-09-21T08:57:04.420Z,16.68
2022-09-21T08:59:31.623Z,16.85
2022-09-21T09:02:06.104Z,16.84
2022-09-21T09:04:55.519Z,16.93
2022-09-21T09:07:59.486Z,17.22
2022-09-21T09:10:39.107Z,17.34
2022-09-21T09:13:20.854Z,17.48
2022-09-21T09:15:59.511Z,17.59
2022-09-21T09:18:34.181Z,17.73
2022-09-21T09:21:29.616Z,17.87
2022-09-21T09:24:04.022Z,17.80
2022-09-21T09:26:39.793Z,18.07
2022-09-21T09:29:18.953Z,18.16
2022-09-21T09:31:46.533Z,18.13
2022-09-21T09:34:18.233Z,18.35
2022-09-21T09:36:59.143Z,18.35
2022-09-21T09:39:29.482Z,18.46
2022-09-21T09:42:08.349Z,18.64
2022-09-21T09:45:12.499Z,18.76
2022-09-21T09:47:58.001Z,18.83
2022-09-21T09:50:30.130Z,18.90
2022-09-21T09:53:05.026Z,18.96
2022-09-21T09:55:43.622Z,19.16
2022-09-21T09:58:33.184Z,19.09
2022-09-21T10:00:59.582Z,19.24
2022-09-21T10:03:27.731Z,19.31
2022-09-21T10:05:54.699Z,19.31
2022-09-21T10:08:36.264Z,19.53
2022-09-21T10:11:03.958Z,19.60
2022-09-21T10:13:33.297Z,19.72
2022-09-21T10:15:59.671Z,19.82
2022-09-21T10:18:38.902Z,19.82
2022-09-21T10:21:08.821Z,19.83
2022-09-21T10:23:37.162Z,19.88
2022-09-21T10:26:12.479Z,20.02
2022-09-21T10:28:55.763Z,20.15
2022-09-21T10:31:24.120Z,20.20
2022-09-21T10:34:03.724Z,20.17
2022-09-21T10:36:35.560Z,20.54
2022-09-21T10:39:22.349Z,20.69
2022-09-21T10:42:12.842Z,20.79
2022-09-21T10:44:42.144Z,20.92
2022-09-21T10:47:28.268Z,20.94
2022-09-21T10:49:57.738Z,21.04
2022-09-21T10:52:31.931Z,21.03
2022-09-21T10:54:58.626Z,21.09
2022-09-21T10:57:28.171Z,21.07
2022-09-21T10:59:54.879Z,21.18
2022-09-21T11:02:31.165Z,21.27
2022-09-21T11:05:00.518Z,21.43
2022-09-21T11:07:49.609Z,21.75
2022-09-21T11:10:21.650Z,21.88
2022-09-21T11:13:06.811Z,21.87
2022-09-21T11:15:56.723Z,22.03
2022-09-21T11:18:44.833Z,22.08
2022-09-21T11:21:31.990Z,21.97
2022-09-21T11:24:12.701Z,22.07
2022-09-21T11:26:56.034Z,22.22
2022-09-21T11:29:30.919Z,22.22
2022-09-21T11:32:22.151Z,22.48
2022-09-21T11:35:20.654Z,22.42
2022-09-21T11:38:11.783Z,22.44
2022-09-21T11:40:42.680Z,22.35
2022-09-21T11:43:26.901Z,22.72
2022-09-21T11:46:30.259Z,22.86
2022-09-21T11:49:12.485Z,23.18
2022-09-21T11:51:55.933Z,23.24
2022-09-21T11:54:46.868Z,23.36
2022-09-21T11:57:28.669Z,23.33
2022-09-21T12:00:16.311Z,23.28
2022-09-21T12:03:09.218Z,23.06
2022-09-21T12:06:03.595Z,23.23
2022-09-21T12:08:42.248Z,23.05
2022-09-21T12:11:31.856Z,23.32
2022-09-21T12:14:11.480Z,23.44
2022-09-21T12:16:56.883Z,23.72
2022-09-21T12:19:33.768Z,23.57
2022-09-21T12:22:14.220Z,23.64
2022-09-21T12:24:50.792Z,23.42
2022-09-21T12:28:02.950Z,22.94
2022-09-21T12:30:32.349Z,22.86
2022-09-21T12:33:01.560Z,23.28
2022-09-21T12:35:39.392Z,23.58
2022-09-21T12:38:29.019Z,23.61
2022-09-21T12:41:06.825Z,24.00
2022-09-21T12:43:53.449Z,24.59
2022-09-21T12:46:22.190Z,24.67
2022-09-21T12:48:49.091Z,24.27
2022-09-21T12:51:32.687Z,23.77
2022-09-21T12:54:06.316Z,24.00
2022-09-21T12:56:49.842Z,24.55
2022-09-21T12:59:43.858Z,24.62
2022-09-21T13:02:19.250Z,24.53
2022-09-21T13:05:07.163Z,24.00
2022-09-21T13:07:55.266Z,23.96
2022-09-21T13:10:28.046Z,24.39
2022-09-21T13:12:59.960Z,24.27
2022-09-21T13:15:30.245Z,23.74
2022-09-21T13:18:01.662Z,23.99
2022-09-21T13:20:34.559Z,24.02
2022-09-21T13:23:02.339Z,24.12
2022-09-21T13:25:32.494Z,24.23
2022-09-21T13:28:14.919Z,24.51
2022-09-21T13:31:37.051Z,24.57
2022-09-21T13:34:20.997Z,24.72
2022-09-21T13:37:16.763Z,24.83
2022-09-21T13:39:44.369Z,24.68
2022-09-21T13:42:29.380Z,24.52
2022-09-21T13:45:00.547Z,24.73
2022-09-21T13:47:33.151Z,24.53
2022-09-21T13:50:12.559Z,24.76
2022-09-21T13:52:45.741Z,24.25
2022-09-21T13:55:27.783Z,23.74
2022-09-21T13:57:55.954Z,23.82
2022-09-21T14:00:22.330Z,23.89
2022-09-21T14:02:48.982Z,24.18
2022-09-21T14:05:40.609Z,24.26
2022-09-21T14:08:15.939Z,24.39
2022-09-21T14:10:56.704Z,24.67
2022-09-21T14:13:31.969Z,24.56
2022-09-21T14:16:29.070Z,24.58
2022-09-21T14:18:56.251Z,24.22
2022-09-21T14:21:22.894Z,24.36
2022-09-21T14:24:08.048Z,24.32
2022-09-21T14:26:46.110Z,24.24
2022-09-21T14:29:21.684Z,24.55
2022-09-21T14:31:52.132Z,24.30
2022-09-21T14:34:25.189Z,24.31
2022-09-21T14:36:55.930Z,24.33
2022-09-21T14:39:25.313Z,24.41
2022-09-21T14:41:54.755Z,24.67
2022-09-21T14:44:25.588Z,24.67
2022-09-21T14:47:22.535Z,24.74
2022-09-21T14:50:14.991Z,24.53
2022-09-21T14:52:56.018Z,24.24
2022-09-21T14:55:40.604Z,24.02
2022-09-21T14:58:33.948Z,24.42
2022-09-21T15:01:35.722Z,24.68
2022-09-21T15:04:31.258Z,24.65
2022-09-21T15:07:34.940Z,24.73
2022-09-21T15:10:32.074Z,24.77
2022-09-21T15:13:08.258Z,24.79
2022-09-21T15:15:42.399Z,24.91
2022-09-21T15:18:21.311Z,25.05
2022-09-21T15:21:01.724Z,25.08
2022-09-21T15:23:40.856Z,25.19
2022-09-21T15:26:19.135Z,25.10
2022-09-21T15:29:08.769Z,25.19
2022-09-21T15:31:38.676Z,24.99
2022-09-21T15:34:06.625Z,25.01
2022-09-21T15:36:37.609Z,25.01
2022-09-21T15:39:04.599Z,24.61
2022-09-21T15:41:45.413Z,24.67
2022-09-21T15:44:16.510Z,24.97
2022-09-21T15:46:47.276Z,25.09
2022-09-21T15:49:21.236Z,25.45
2022-09-21T15:51:56.471Z,25.60
2022-09-21T15:54:40.021Z,25.86
2022-09-21T15:57:25.221Z,25.94
2022-09-21T15:59:53.366Z,26.13
2022-09-21T16:02:25.135Z,26.13
2022-09-21T16:04:52.552Z,26.13
2022-09-21T16:07:30.579Z,25.89
2022-09-21T16:09:57.143Z,25.93
2022-09-21T16:12:26.372Z,25.86
2022-09-21T16:14:53.857Z,25.55
2022-09-21T16:17:26.302Z,25.25
2022-09-21T16:19:56.144Z,25.02
2022-09-21T16:22:39.153Z,24.59
2022-09-21T16:25:23.005Z,24.32
2022-09-21T16:27:54.225Z,24.01
2022-09-21T16:30:41.442Z,23.88
2022-09-21T16:33:34.540Z,23.69
2022-09-21T16:36:02.566Z,23.52
2022-09-21T16:38:28.856Z,23.30
2022-09-21T16:40:56.624Z,23.25
2022-09-21T16:43:24.177Z,23.22
2022-09-21T16:45:50.490Z,23.14
2022-09-21T16:48:16.785Z,23.13
2022-09-21T16:50:43.106Z,23.02
2022-09-21T16:53:09.462Z,22.94
2022-09-21T16:55:35.782Z,22.58
2022-09-21T16:58:02.074Z,22.87
2022-09-21T17:00:40.018Z,22.66
2022-09-21T17:03:06.447Z,22.59
2022-09-21T17:05:32.772Z,22.41
2022-09-21T17:07:59.639Z,22.42
2022-09-21T17:10:34.501Z,22.24
2022-09-21T17:13:00.804Z,22.20
2022-09-21T17:15:28.414Z,21.99
2022-09-21T17:17:54.733Z,21.93
2022-09-21T17:20:35.602Z,21.89
2022-09-21T17:23:03.131Z,21.86
2022-09-21T17:25:33.184Z,21.84
2022-09-21T17:28:00.985Z,21.69
2022-09-21T17:30:28.134Z,21.66
2022-09-21T17:32:55.364Z,21.69
2022-09-21T17:35:32.743Z,21.38
2022-09-21T17:37:59.853Z,21.36
2022-09-21T17:40:27.184Z,21.17
2022-09-21T17:43:05.007Z,21.08
2022-09-21T17:45:46.738Z,20.98
2022-09-21T17:48:18.912Z,20.84
2022-09-21T17:50:45.475Z,20.64
2022-09-21T17:53:30.817Z,20.56
2022-09-21T17:55:59.210Z,20.46
2022-09-21T17:58:43.167Z,20.25
2022-09-21T18:01:29.875Z,20.34
2022-09-21T18:03:57.469Z,20.47
2022-09-21T18:06:24.336Z,20.39
2022-09-21T18:08:50.910Z,20.43
2022-09-21T18:11:39.121Z,20.34
2022-09-21T18:14:14.957Z,20.32
2022-09-21T18:17:16.573Z,20.22
2022-09-21T18:19:51.584Z,19.93
2022-09-21T18:22:31.442Z,19.99
2022-09-21T18:24:58.213Z,19.85
2022-09-21T18:27:24.841Z,19.79
2022-09-21T18:29:51.543Z,19.77
2022-09-21T18:32:53.338Z,19.82
2022-09-21T18:35:45.320Z,19.79
2022-09-21T18:38:27.048Z,19.54
2022-09-21T18:41:20.249Z,19.63
2022-09-21T18:44:14.535Z,19.66
2022-09-21T18:47:03.507Z,19.42
2022-09-21T18:49:47.754Z,19.41
2022-09-21T18:52:35.770Z,19.33
2022-09-21T18:55:11.406Z,19.30
2022-09-21T18:57:37.994Z,19.19
2022-09-21T19:00:05.418Z,19.06
2022-09-21T19:02:32.003Z,19.05
2022-09-21T19:04:59.052Z,19.11
2022-09-21T19:07:39.603Z,18.78
2022-09-21T19:10:28.061Z,19.04
2022-09-21T19:12:54.759Z,18.97
2022-09-21T19:15:59.847Z,18.75
2022-09-21T19:18:48.983Z,18.66
2022-09-21T19:21:31.464Z,18.38
2022-09-21T19:24:25.518Z,18.40
2022-09-21T19:26:55.820Z,18.47
2022-09-21T19:29:28.223Z,18.45
2022-09-21T19:31:54.960Z,18.22
2022-09-21T19:34:21.398Z,18.07
2022-09-21T19:36:47.792Z,18.35
2022-09-21T19:39:15.008Z,18.25
2022-09-21T19:41:50.774Z,18.07
2022-09-21T19:44:29.645Z,18.31
2022-09-21T19:46:59.246Z,18.23
2022-09-21T19:49:35.847Z,17.96
2022-09-21T19:52:04.518Z,18.02
2022-09-21T19:54:49.664Z,18.15
2022-09-21T19:57:36.342Z,18.15
2022-09-21T20:00:08.575Z,17.93
2022-09-21T20:02:41.499Z,18.00
2022-09-21T20:05:23.119Z,17.95
2022-09-21T20:07:58.106Z,17.98
2022-09-21T20:10:45.981Z,17.91
2022-09-21T20:14:00.113Z,17.89
2022-09-21T20:16:32.426Z,17.78
2022-09-21T20:19:14.413Z,17.65
2022-09-21T20:21:43.575Z,17.78
2022-09-21T20:24:19.732Z,17.59
2022-09-21T20:26:49.998Z,17.60
2022-09-21T20:29:17.165Z,17.43
2022-09-21T20:31:44.063Z,17.40
2022-09-21T20:34:12.095Z,17.47
2022-09-21T20:36:38.402Z,17.42
2022-09-21T20:39:04.883Z,17.21
2022-09-21T20:41:31.308Z,17.18
2022-09-21T20:43:59.141Z,17.26
2022-09-21T20:46:26.001Z,17.07
2022-09-21T20:49:05.197Z,17.36
2022-09-21T20:51:33.934Z,17.19
2022-09-21T20:54:04.638Z,17.20
2022-09-21T20:56:31.313Z,16.95
2022-09-21T20:58:57.769Z,17.09
2022-09-21T21:01:24.765Z,16.94
2022-09-21T21:03:51.366Z,16.92
2022-09-21T21:06:18.625Z,16.79
2022-09-21T21:08:45.377Z,16.85
2022-09-21T21:11:11.968Z,16.78
2022-09-21T21:13:38.290Z,16.80
2022-09-21T21:16:08.241Z,16.68
2022-09-21T21:18:41.605Z,16.79
2022-09-21T21:21:08.068Z,16.67
2022-09-21T21:23:54.364Z,16.69
2022-09-21T21:26:20.866Z,16.64
2022-09-21T21:28:47.413Z,16.70
2022-09-21T21:31:19.411Z,16.45
2022-09-21T21:33:47.778Z,16.46
2022-09-21T21:36:14.934Z,16.36
2022-09-21T21:38:43.058Z,16.58
2022-09-21T21:41:12.598Z,16.32
2022-09-21T21:43:40.216Z,16.35
2022-09-21T21:46:10.654Z,16.34
2022-09-21T21:48:38.596Z,16.39
2022-09-21T21:51:06.667Z,16.35
2022-09-21T21:53:35.873Z,16.15
2022-09-21T21:56:05.373Z,16.32
2022-09-21T21:58:33.065Z,16.07
2022-09-21T22:01:14.929Z,16.27
2022-09-21T22:03:42.037Z,16.18
2022-09-21T22:06:10.005Z,16.18
2022-09-21T22:08:38.156Z,15.97
2022-09-21T22:11:05.766Z,16.13
2022-09-21T22:13:38.254Z,16.09
2022-09-21T22:16:16.162Z,15.90
2022-09-21T22:18:43.929Z,15.93
2022-09-21T22:21:16.697Z,16.01
2022-09-21T22:23:43.863Z,15.96
2022-09-21T22:26:15.709Z,15.92
2022-09-21T22:28:53.349Z,15.45
2022-09-21T22:31:23.099Z,15.70
2022-09-21T22:33:49.476Z,15.88
2022-09-21T22:36:21.567Z,15.85
2022-09-21T22:38:49.331Z,15.41
2022-09-21T22:41:18.165Z,15.67
2022-09-21T22:43:48.549Z,15.76
2022-09-21T22:46:17.492Z,15.52
2022-09-21T22:48:44.620Z,15.52
2022-09-21T22:51:12.254Z,15.64
2022-09-21T22:53:38.896Z,15.34
2022-09-21T22:56:06.908Z,15.49
2022-09-21T22:58:35.019Z,15.51
2022-09-21T23:01:15.647Z,15.49
2022-09-21T23:03:42.601Z,15.33
2022-09-21T23:06:11.500Z,15.42
2022-09-21T23:08:38.883Z,15.31
2022-09-21T23:11:22.176Z,15.26
2022-09-21T23:13:49.294Z,15.36
2022-09-21T23:16:16.656Z,15.32
2022-09-21T23:18:43.888Z,15.17
2022-09-21T23:21:13.243Z,15.29
2022-09-21T23:23:40.174Z,15.21
2022-09-21T23:26:16.717Z,14.93
2022-09-21T23:28:45.623Z,14.99
2022-09-21T23:31:14.695Z,14.84
2022-09-21T23:33:46.982Z,15.00
2022-09-21T23:36:16.344Z,15.00
2022-09-21T23:38:43.193Z,14.96
2022-09-21T23:41:13.800Z,14.96
2022-09-21T23:43:41.893Z,14.91
2022-09-21T23:46:10.902Z,14.82
2022-09-21T23:48:38.205Z,14.66
2022-09-21T23:51:05.204Z,14.89
2022-09-21T23:53:31.834Z,14.75
2022-09-21T23:55:58.677Z,14.67
2022-09-21T23:58:26.015Z,14.87
